Air Resources Laboratory banner image
Air Resources Laboratory web site National Oceanic and Atmospheric Administration (NOAA)

nc metar


K2DP 192356Z AUTO 17005KT 10SM BKN021 15/14 A3041 RMK AO2 SLPNO T01530141 10175
 20150 51005 $=
KAKH 192354Z AUTO 03003KT 2 1/2SM BR OVC003 13/12 A3037 RMK AO2 SLP286
 T01280117 10133 20117 50004=
KASJ 192355Z AUTO 00000KT 5SM BR SCT004 BKN028 OVC037 10/10 A3041 RMK AO2
 T01000100 10105 20083=
KAVL 192354Z 13004KT 10SM BKN004 OVC016 12/11 A3036 RMK AO2 SLP273 T01170106
 10150 20111 53008=
KBUY 192354Z AUTO 00000KT 1SM BR OVC003 12/11 A3038 RMK AO2 SLP289 T01170111
 10117 20100 51005=
KCLT 192352Z 03004KT 8SM OVC009 13/12 A3038 RMK AO2 CIG 006V010 SLP286
 T01280122 10139 20122 53005=
KDPL 192355Z AUTO 00000KT 2SM BR OVC004 16/16 A3040 RMK AO2=
KECG 192354Z 15005KT 10SM FEW055 OVC085 18/17 A3040 RMK AO2 SLP293 60000
 T01780167 10183 20133 53004=
KEDE 192355Z AUTO 00000KT 10SM SCT028 SCT075 BKN085 16/15 A3040 RMK AO2
 T01640153 10201 20131=
KEQY 192353Z AUTO 07003KT 3/4SM BR OVC002 12/12 A3037 RMK AO2 SLP298 T01170117
 10133 20111 53006 $=
KEWN 192354Z 17007KT 10SM SCT049 OVC095 19/18 A3041 RMK AO2 SLP296 60000
 T01940178 10239 20194 51009=
KEXX 192355Z AUTO 00000KT 5SM BR BKN006 OVC012 11/11 A3039 RMK AO2 T01110111
 10115 20100=
KFAY 192353Z 03003KT 9SM OVC007 12/11 A3039 RMK AO2 SLP287 T01220106 10133
 20100 53007=
KFBG 192356Z AUTO 00000KT 9SM OVC005 11/10 M RMK AO2 SLPNO T01080099 10113
 20094 $=
KFQD 192355Z AUTO 00000KT 1 3/4SM BR OVC003 11/11 A3039 RMK AO2 T01140114 10120
 20102=
KGEV 192355Z AUTO 00000KT 10SM SCT033 10/09 A3034 RMK AO2 T01010094 10175 20097=
KGSB 192356Z AUTO 00000KT 10SM BKN009 OVC050 13/11 A3038 RMK AO2 CIG 009V050
 SLP291 60000 T01300114 10183 20130 52008 $=
KGSO 192354Z 18005KT 1 3/4SM BR OVC003 11/11 A3038 RMK AO2 SFC VIS 2 SLP287
 T01060106 10111 20089 53006=
KHBI 192355Z AUTO 00000KT 4SM BR OVC004 11/11 A3042 RMK AO2 T01130113 10116
 20096=
KHFF 192356Z AUTO 06003KT 5SM BR OVC005 11/10 A3039 RMK AO2 SLP308 T01130104
 10118 20098 53005 $=
KHKY 192353Z 00000KT 1 3/4SM BR OVC002 10/10 A3037 RMK AO2 SLP276 T01000100
 10111 20089 53005=
KHRJ 192355Z AUTO 00000KT 7SM OVC008 11/11 A3041 RMK AO2 T01100110 10111 20086=
KHSE 192351Z AUTO 17008KT 9SM OVC036 18/17 A3043 RMK AO2 SLP302 T01780167 10206
 20172 53005 TSNO=
KIGX 192356Z AUTO 00000KT 1 1/2SM BR OVC004 09/09 A3041 RMK AO2 SLP296 60000
 T00940094 10100 20078 53006=
KILM 192353Z AUTO 00000KT 10SM FEW026 BKN065 OVC085 19/18 A3039 RMK AO2 RAE32
 SLP291 P0001 60002 T01890178 10228 20189 53007=
KINT 192354Z 17003KT 4SM BR SCT006 OVC014 11/10 A3039 RMK AO2 SLP290 T01060100
 10106 20089 53003=
KIPJ 192345Z AUTO 00000KT 2SM BR OVC003 11/11 A3038 RMK AO2 T01110111=
KISO 192356Z 00000KT 3SM BR SCT011 BKN034 OVC050 14/14 A3040 RMK AO2=
KJNX 200000Z AUTO 00000KT 10SM OVC010 11/11 A3041 RMK AO2=
KJQF 192357Z 00000KT 3SM BR OVC005 12/11 A3041=
KLBT 192354Z AUTO 02004KT 8SM BKN060 BKN075 14/13 A3038 RMK AO2 SLP288 60000
 T01440128 10167 20128 53006 $=
KMEB 192352Z AUTO 04004KT 6SM BR OVC070 13/12 A3040 RMK AO2 SLP293 T01330117
 10139 20117 53004=
KMQI 192355Z AUTO 19007KT 10SM OVC024 16/15 A3042 RMK AO2 T01550145 10162 20138=
KMRH 192358Z AUTO 17008KT 10SM CLR 19/17 A3041 RMK AO2 SLP298 60000 T01890172
 10217 20178 53007=
KMRN 192355Z AUTO 00000KT 4SM BR OVC004 11/11 A3042 RMK AO2 T01140110 10127
 20112=
KMWK 192355Z AUTO 00000KT 7SM OVC005 10/08 A3040 RMK AO2 T00980080 10100 20091=
KNCA 192356Z AUTO 19008KT 10SM SCT013 BKN019 OVC065 21/19 A3039 RMK AO2 SLP293
 T02060189 10233 20206 53008 $=
KNJM 192357Z AUTO 18009KT 10SM FEW033 BKN043 OVC090 19/19 A3041 RMK AO2 SLP301
 60000 T01940189 10217 20183 53007=
KNKT 192358Z 17004KT 7SM BKN035 OVC090 21/19 A3041 RMK SLP294 T02110189 10239
 20211 51008=
KOAJ 192356Z AUTO 18005KT 10SM FEW009 OVC012 19/19 A3040 RMK AO2 RAB09E42
 SLP299 P0000 60000 T01940189 10244 20194 53010=
KOCW 192355Z AUTO 00000KT 10SM BKN022 BKN037 OVC080 17/15 A3040 RMK AO2
 T01670145 10211 20137=
KPGV 192345Z AUTO 00000KT 10SM SCT060 14/12 A3040 RMK AO2=
KPOB 192356Z AUTO 00000KT 9SM OVC004 11/10 A3040 RMK AO2 SLP298 T01080099 10109
 20092 53006 $=
KRDU 192351Z 00000KT 1/4SM R23R/P6000FT -DZ BR OVC002 09/09 A3041 RMK AO2 SFC
 VIS 1 1/2 SLP297 P0000 60000 T00940094 10094 20072 53004=
KRUQ 192355Z AUTO 00000KT 2SM BR 11/11 A3039 RMK AO2 T01090109 10115 20100=
KRWI 192353Z AUTO 00000KT 7SM SCT060 BKN075 BKN095 11/09 A3041 RMK AO2 SLP297
 T01060094 10117 20089 53006=
KSOP 192356Z AUTO 00000KT 3SM BR OVC003 10/10 A3041 RMK AO2 SLP316 T01000100
 10100 20083 51006=
KSVH 192355Z AUTO 00000KT 1SM BR OVC002 10/08 A3038 RMK AO2 T00970082 10098
 20086=
KTDF 192355Z AUTO 00000KT 1/2SM FG OVC003 08/08 A3042 RMK AO2=
KTNB 192355Z AUTO 00000KT 10SM CLR 11/10 A3036 RMK AO2 T01080100 10162 20108=
KUKF 192345Z AUTO 00000KT 2 1/2SM BR OVC004 08/08 A3042 RMK AO2=
KVUJ 192355Z AUTO 00000KT 1/2SM FG OVC004 11/11 A3044 RMK AO2 T01100108 10113
 20095=